Terminal Aerodrome Forecast
Issued by NWS

Home | Current Version | Previous Version | Graphics & Text | Print | Product List | Glossary On
Versions: 1 2 3 4 5 6 7 8 9 10 11 12 13 14 15 16 17
000
FTUS43 KMPX 142300
TAFAXN
TAF
KAXN 142335Z 1500/1524 16008KT 0SM FG VV002
     FM150300 22005KT 0SM FG VV002
     FM150600 29007KT 1/4SM FG VV002
     FM151100 33012KT 1/2SM FZFG VCSH OVC004
     FM151700 36018G28KT 1SM -SN BR OVC005=

USA.gov is the U.S. government's official web portal to all federal, state and local government web resources and services.